sensor_id;sensor_type;location;lat;lon;timestamp;P1;durP1;ratioP1;P2;durP2;ratioP2
9739;SDS011;4909;42.680;26.324;2023-11-19T00:00:29;75.80;;;51.13;;
9739;SDS011;4909;42.680;26.324;2023-11-19T00:02:56;76.87;;;50.00;;
9739;SDS011;4909;42.680;26.324;2023-11-19T00:05:23;74.70;;;50.00;;
9739;SDS011;4909;42.680;26.324;2023-11-19T00:07:50;75.30;;;50.73;;
9739;SDS011;4909;42.680;26.324;2023-11-19T00:10:17;78.63;;;51.50;;
9739;SDS011;4909;42.680;26.324;2023-11-19T00:12:45;76.67;;;49.53;;
9739;SDS011;4909;42.680;26.324;2023-11-19T00:15:14;77.37;;;50.63;;
9739;SDS011;4909;42.680;26.324;2023-11-19T00:17:44;76.90;;;49.70;;
9739;SDS011;4909;42.680;26.324;2023-11-19T00:20:12;79.07;;;51.80;;
9739;SDS011;4909;42.680;26.324;2023-11-19T00:22:40;79.00;;;52.03;;
9739;SDS011;4909;42.680;26.324;2023-11-19T00:25:08;77.53;;;50.10;;
9739;SDS011;4909;42.680;26.324;2023-11-19T00:27:35;80.27;;;51.80;;
9739;SDS011;4909;42.680;26.324;2023-11-19T00:30:02;79.97;;;51.33;;
9739;SDS011;4909;42.680;26.324;2023-11-19T00:32:32;77.80;;;51.17;;
9739;SDS011;4909;42.680;26.324;2023-11-19T00:34:59;77.83;;;51.00;;
9739;SDS011;4909;42.680;26.324;2023-11-19T00:37:26;78.67;;;50.77;;
9739;SDS011;4909;42.680;26.324;2023-11-19T00:39:53;79.70;;;51.70;;
9739;SDS011;4909;42.680;26.324;2023-11-19T00:42:21;80.63;;;51.80;;
9739;SDS011;4909;42.680;26.324;2023-11-19T00:44:49;77.83;;;49.87;;
9739;SDS011;4909;42.680;26.324;2023-11-19T00:47:16;83.90;;;54.07;;
9739;SDS011;4909;42.680;26.324;2023-11-19T00:49:47;79.77;;;50.80;;
9739;SDS011;4909;42.680;26.324;2023-11-19T00:52:15;77.93;;;50.03;;
9739;SDS011;4909;42.680;26.324;2023-11-19T00:54:42;79.03;;;50.63;;
9739;SDS011;4909;42.680;26.324;2023-11-19T00:57:09;76.83;;;49.53;;
9739;SDS011;4909;42.680;26.324;2023-11-19T00:59:36;78.87;;;50.87;;
9739;SDS011;4909;42.680;26.324;2023-11-19T01:02:03;80.83;;;50.23;;
9739;SDS011;4909;42.680;26.324;2023-11-19T01:04:33;77.80;;;50.03;;
9739;SDS011;4909;42.680;26.324;2023-11-19T01:07:02;79.27;;;51.17;;
9739;SDS011;4909;42.680;26.324;2023-11-19T01:09:30;77.70;;;50.53;;
9739;SDS011;4909;42.680;26.324;2023-11-19T01:11:59;79.17;;;49.90;;
9739;SDS011;4909;42.680;26.324;2023-11-19T01:14:26;81.87;;;51.00;;
9739;SDS011;4909;42.680;26.324;2023-11-19T01:16:53;85.90;;;52.73;;
9739;SDS011;4909;42.680;26.324;2023-11-19T01:19:21;80.70;;;51.00;;
9739;SDS011;4909;42.680;26.324;2023-11-19T01:21:49;84.97;;;52.03;;
9739;SDS011;4909;42.680;26.324;2023-11-19T01:24:18;87.70;;;54.20;;
9739;SDS011;4909;42.680;26.324;2023-11-19T01:26:45;86.90;;;53.27;;
9739;SDS011;4909;42.680;26.324;2023-11-19T01:29:12;81.93;;;53.37;;
9739;SDS011;4909;42.680;26.324;2023-11-19T01:31:40;84.40;;;53.33;;
9739;SDS011;4909;42.680;26.324;2023-11-19T01:34:07;82.47;;;50.80;;
9739;SDS011;4909;42.680;26.324;2023-11-19T01:36:34;88.07;;;53.77;;
9739;SDS011;4909;42.680;26.324;2023-11-19T01:39:01;86.70;;;53.10;;
9739;SDS011;4909;42.680;26.324;2023-11-19T01:41:31;89.90;;;53.57;;
9739;SDS011;4909;42.680;26.324;2023-11-19T01:44:00;87.73;;;54.07;;
9739;SDS011;4909;42.680;26.324;2023-11-19T01:46:27;86.90;;;53.23;;
9739;SDS011;4909;42.680;26.324;2023-11-19T01:48:54;86.37;;;53.30;;
9739;SDS011;4909;42.680;26.324;2023-11-19T01:51:22;85.63;;;52.97;;
9739;SDS011;4909;42.680;26.324;2023-11-19T01:53:50;86.00;;;52.43;;
9739;SDS011;4909;42.680;26.324;2023-11-19T01:56:17;87.60;;;53.73;;
9739;SDS011;4909;42.680;26.324;2023-11-19T01:58:45;84.47;;;52.90;;
9739;SDS011;4909;42.680;26.324;2023-11-19T02:01:15;84.13;;;52.07;;
9739;SDS011;4909;42.680;26.324;2023-11-19T02:03:42;89.47;;;55.43;;
9739;SDS011;4909;42.680;26.324;2023-11-19T02:06:09;87.03;;;53.93;;
9739;SDS011;4909;42.680;26.324;2023-11-19T02:08:36;88.80;;;52.70;;
9739;SDS011;4909;42.680;26.324;2023-11-19T02:11:04;87.20;;;53.83;;
9739;SDS011;4909;42.680;26.324;2023-11-19T02:13:32;88.53;;;53.47;;
9739;SDS011;4909;42.680;26.324;2023-11-19T02:16:03;89.10;;;52.93;;
9739;SDS011;4909;42.680;26.324;2023-11-19T02:18:30;91.07;;;55.20;;
9739;SDS011;4909;42.680;26.324;2023-11-19T02:20:58;92.00;;;54.63;;
9739;SDS011;4909;42.680;26.324;2023-11-19T02:23:26;87.93;;;54.23;;
9739;SDS011;4909;42.680;26.324;2023-11-19T02:25:57;91.17;;;53.93;;
9739;SDS011;4909;42.680;26.324;2023-11-19T02:28:31;87.67;;;53.60;;
9739;SDS011;4909;42.680;26.324;2023-11-19T02:30:59;85.83;;;52.10;;
9739;SDS011;4909;42.680;26.324;2023-11-19T02:33:26;88.33;;;53.73;;
9739;SDS011;4909;42.680;26.324;2023-11-19T02:35:53;84.80;;;53.70;;
9739;SDS011;4909;42.680;26.324;2023-11-19T02:38:20;86.57;;;52.77;;
9739;SDS011;4909;42.680;26.324;2023-11-19T02:40:47;83.87;;;51.57;;
9739;SDS011;4909;42.680;26.324;2023-11-19T02:43:14;85.33;;;53.50;;
9739;SDS011;4909;42.680;26.324;2023-11-19T02:45:43;89.17;;;53.73;;
9739;SDS011;4909;42.680;26.324;2023-11-19T02:48:11;88.20;;;53.27;;
9739;SDS011;4909;42.680;26.324;2023-11-19T02:50:39;85.67;;;52.67;;
9739;SDS011;4909;42.680;26.324;2023-11-19T02:53:06;84.77;;;52.93;;
9739;SDS011;4909;42.680;26.324;2023-11-19T02:55:33;83.10;;;52.33;;
9739;SDS011;4909;42.680;26.324;2023-11-19T02:58:03;81.27;;;51.20;;
9739;SDS011;4909;42.680;26.324;2023-11-19T03:00:39;83.20;;;51.90;;
9739;SDS011;4909;42.680;26.324;2023-11-19T03:03:15;80.63;;;50.83;;
9739;SDS011;4909;42.680;26.324;2023-11-19T03:05:45;84.37;;;51.70;;
9739;SDS011;4909;42.680;26.324;2023-11-19T03:08:13;85.20;;;52.27;;
9739;SDS011;4909;42.680;26.324;2023-11-19T03:10:40;78.90;;;51.03;;
9739;SDS011;4909;42.680;26.324;2023-11-19T03:13:09;80.00;;;51.77;;
9739;SDS011;4909;42.680;26.324;2023-11-19T03:15:39;77.10;;;50.17;;
9739;SDS011;4909;42.680;26.324;2023-11-19T03:18:06;79.50;;;51.40;;
9739;SDS011;4909;42.680;26.324;2023-11-19T03:20:34;82.37;;;51.57;;
9739;SDS011;4909;42.680;26.324;2023-11-19T03:23:01;81.03;;;50.90;;
9739;SDS011;4909;42.680;26.324;2023-11-19T03:25:28;80.03;;;50.83;;
9739;SDS011;4909;42.680;26.324;2023-11-19T03:27:58;79.17;;;50.77;;
9739;SDS011;4909;42.680;26.324;2023-11-19T03:30:25;82.17;;;50.47;;
9739;SDS011;4909;42.680;26.324;2023-11-19T03:32:53;84.23;;;51.57;;
9739;SDS011;4909;42.680;26.324;2023-11-19T03:35:20;77.67;;;49.33;;
9739;SDS011;4909;42.680;26.324;2023-11-19T03:37:49;79.67;;;50.60;;
9739;SDS011;4909;42.680;26.324;2023-11-19T03:40:16;77.73;;;49.37;;
9739;SDS011;4909;42.680;26.324;2023-11-19T03:42:44;79.27;;;50.20;;
9739;SDS011;4909;42.680;26.324;2023-11-19T03:45:11;79.77;;;49.53;;
9739;SDS011;4909;42.680;26.324;2023-11-19T03:47:38;78.47;;;48.60;;
9739;SDS011;4909;42.680;26.324;2023-11-19T03:50:06;82.23;;;51.17;;
9739;SDS011;4909;42.680;26.324;2023-11-19T03:52:34;80.50;;;49.70;;
9739;SDS011;4909;42.680;26.324;2023-11-19T03:55:02;80.10;;;51.10;;
9739;SDS011;4909;42.680;26.324;2023-11-19T03:57:30;85.63;;;51.17;;
9739;SDS011;4909;42.680;26.324;2023-11-19T03:59:56;83.73;;;51.43;;
9739;SDS011;4909;42.680;26.324;2023-11-19T04:02:24;87.57;;;52.00;;
9739;SDS011;4909;42.680;26.324;2023-11-19T04:04:54;86.40;;;51.97;;
9739;SDS011;4909;42.680;26.324;2023-11-19T04:07:21;88.37;;;53.93;;
9739;SDS011;4909;42.680;26.324;2023-11-19T04:09:48;89.27;;;52.27;;
9739;SDS011;4909;42.680;26.324;2023-11-19T04:12:17;87.33;;;51.93;;
9739;SDS011;4909;42.680;26.324;2023-11-19T04:14:44;85.13;;;52.10;;
9739;SDS011;4909;42.680;26.324;2023-11-19T04:17:11;85.33;;;51.40;;
9739;SDS011;4909;42.680;26.324;2023-11-19T04:19:38;86.37;;;52.77;;
9739;SDS011;4909;42.680;26.324;2023-11-19T04:22:07;85.53;;;52.00;;
9739;SDS011;4909;42.680;26.324;2023-11-19T04:24:34;86.87;;;52.83;;
9739;SDS011;4909;42.680;26.324;2023-11-19T04:27:01;91.03;;;54.03;;
9739;SDS011;4909;42.680;26.324;2023-11-19T04:29:30;89.93;;;52.80;;
9739;SDS011;4909;42.680;26.324;2023-11-19T04:31:57;92.57;;;55.17;;
9739;SDS011;4909;42.680;26.324;2023-11-19T04:34:26;93.83;;;54.27;;
9739;SDS011;4909;42.680;26.324;2023-11-19T04:36:53;94.10;;;55.63;;
9739;SDS011;4909;42.680;26.324;2023-11-19T04:39:20;97.47;;;56.97;;
9739;SDS011;4909;42.680;26.324;2023-11-19T04:41:47;94.97;;;55.27;;
9739;SDS011;4909;42.680;26.324;2023-11-19T04:44:15;96.07;;;56.80;;
9739;SDS011;4909;42.680;26.324;2023-11-19T04:46:44;98.07;;;57.97;;
9739;SDS011;4909;42.680;26.324;2023-11-19T04:49:11;97.37;;;56.87;;
9739;SDS011;4909;42.680;26.324;2023-11-19T04:51:39;94.60;;;56.40;;
9739;SDS011;4909;42.680;26.324;2023-11-19T04:54:07;93.80;;;54.87;;
9739;SDS011;4909;42.680;26.324;2023-11-19T04:56:34;97.17;;;56.57;;
9739;SDS011;4909;42.680;26.324;2023-11-19T04:59:02;95.47;;;56.60;;
9739;SDS011;4909;42.680;26.324;2023-11-19T05:01:30;92.90;;;57.43;;
9739;SDS011;4909;42.680;26.324;2023-11-19T05:03:59;92.90;;;57.07;;
9739;SDS011;4909;42.680;26.324;2023-11-19T05:06:27;90.23;;;56.03;;
9739;SDS011;4909;42.680;26.324;2023-11-19T05:08:54;90.37;;;53.73;;
9739;SDS011;4909;42.680;26.324;2023-11-19T05:11:21;93.43;;;56.10;;
9739;SDS011;4909;42.680;26.324;2023-11-19T05:13:48;90.50;;;55.60;;
9739;SDS011;4909;42.680;26.324;2023-11-19T05:16:16;90.47;;;55.47;;
9739;SDS011;4909;42.680;26.324;2023-11-19T05:18:44;90.17;;;54.53;;
9739;SDS011;4909;42.680;26.324;2023-11-19T05:21:12;93.47;;;56.33;;
9739;SDS011;4909;42.680;26.324;2023-11-19T05:23:39;93.27;;;54.47;;
9739;SDS011;4909;42.680;26.324;2023-11-19T05:26:07;93.43;;;55.43;;
9739;SDS011;4909;42.680;26.324;2023-11-19T05:28:36;90.93;;;55.57;;
9739;SDS011;4909;42.680;26.324;2023-11-19T05:31:04;97.17;;;67.37;;
9739;SDS011;4909;42.680;26.324;2023-11-19T05:33:32;88.37;;;52.93;;
9739;SDS011;4909;42.680;26.324;2023-11-19T05:35:59;93.00;;;56.37;;
9739;SDS011;4909;42.680;26.324;2023-11-19T05:38:29;92.33;;;68.40;;
9739;SDS011;4909;42.680;26.324;2023-11-19T05:40:56;96.60;;;67.77;;
9739;SDS011;4909;42.680;26.324;2023-11-19T05:43:23;95.27;;;63.17;;
9739;SDS011;4909;42.680;26.324;2023-11-19T05:45:50;96.00;;;66.23;;
9739;SDS011;4909;42.680;26.324;2023-11-19T05:48:17;96.60;;;63.20;;
9739;SDS011;4909;42.680;26.324;2023-11-19T05:50:44;100.53;;;69.07;;
9739;SDS011;4909;42.680;26.324;2023-11-19T05:53:12;96.93;;;61.50;;
9739;SDS011;4909;42.680;26.324;2023-11-19T05:55:41;101.40;;;64.63;;
9739;SDS011;4909;42.680;26.324;2023-11-19T05:58:13;95.43;;;62.43;;
9739;SDS011;4909;42.680;26.324;2023-11-19T06:00:40;99.10;;;66.90;;
9739;SDS011;4909;42.680;26.324;2023-11-19T06:03:08;100.77;;;65.80;;
9739;SDS011;4909;42.680;26.324;2023-11-19T06:05:35;104.37;;;66.10;;
9739;SDS011;4909;42.680;26.324;2023-11-19T06:08:02;102.23;;;66.77;;
9739;SDS011;4909;42.680;26.324;2023-11-19T06:10:29;97.60;;;64.43;;
9739;SDS011;4909;42.680;26.324;2023-11-19T06:12:58;93.83;;;64.60;;
9739;SDS011;4909;42.680;26.324;2023-11-19T06:15:30;92.80;;;63.13;;
9739;SDS011;4909;42.680;26.324;2023-11-19T06:17:58;95.07;;;64.47;;
9739;SDS011;4909;42.680;26.324;2023-11-19T06:20:27;93.43;;;60.80;;
9739;SDS011;4909;42.680;26.324;2023-11-19T06:22:54;99.67;;;67.30;;
9739;SDS011;4909;42.680;26.324;2023-11-19T06:25:21;99.40;;;65.40;;
9739;SDS011;4909;42.680;26.324;2023-11-19T06:27:49;99.80;;;64.27;;
9739;SDS011;4909;42.680;26.324;2023-11-19T06:30:18;99.27;;;64.17;;
9739;SDS011;4909;42.680;26.324;2023-11-19T06:32:45;97.70;;;65.97;;
9739;SDS011;4909;42.680;26.324;2023-11-19T06:35:13;95.97;;;65.23;;
9739;SDS011;4909;42.680;26.324;2023-11-19T06:37:40;95.53;;;63.30;;
9739;SDS011;4909;42.680;26.324;2023-11-19T06:40:08;94.83;;;63.47;;
9739;SDS011;4909;42.680;26.324;2023-11-19T06:42:37;96.77;;;65.73;;
9739;SDS011;4909;42.680;26.324;2023-11-19T06:45:06;98.47;;;63.77;;
9739;SDS011;4909;42.680;26.324;2023-11-19T06:47:35;97.83;;;61.77;;
9739;SDS011;4909;42.680;26.324;2023-11-19T06:50:02;94.77;;;62.13;;
9739;SDS011;4909;42.680;26.324;2023-11-19T06:52:31;99.03;;;65.17;;
9739;SDS011;4909;42.680;26.324;2023-11-19T06:54:58;97.73;;;63.30;;
9739;SDS011;4909;42.680;26.324;2023-11-19T06:57:25;101.30;;;67.37;;
9739;SDS011;4909;42.680;26.324;2023-11-19T06:59:53;100.00;;;65.17;;
9739;SDS011;4909;42.680;26.324;2023-11-19T07:02:21;97.10;;;62.17;;
9739;SDS011;4909;42.680;26.324;2023-11-19T07:04:49;97.97;;;64.80;;
9739;SDS011;4909;42.680;26.324;2023-11-19T07:07:17;99.30;;;66.53;;
9739;SDS011;4909;42.680;26.324;2023-11-19T07:09:45;99.87;;;66.70;;
9739;SDS011;4909;42.680;26.324;2023-11-19T07:12:13;96.87;;;64.63;;
9739;SDS011;4909;42.680;26.324;2023-11-19T07:14:40;97.43;;;64.40;;
9739;SDS011;4909;42.680;26.324;2023-11-19T07:17:07;101.47;;;63.97;;
9739;SDS011;4909;42.680;26.324;2023-11-19T07:19:35;105.20;;;66.70;;
9739;SDS011;4909;42.680;26.324;2023-11-19T07:22:04;112.20;;;68.30;;
9739;SDS011;4909;42.680;26.324;2023-11-19T07:24:32;111.23;;;72.10;;
9739;SDS011;4909;42.680;26.324;2023-11-19T07:26:59;118.07;;;72.97;;
9739;SDS011;4909;42.680;26.324;2023-11-19T07:29:29;114.30;;;72.07;;
9739;SDS011;4909;42.680;26.324;2023-11-19T07:31:56;113.00;;;71.90;;
9739;SDS011;4909;42.680;26.324;2023-11-19T07:34:23;115.47;;;71.70;;
9739;SDS011;4909;42.680;26.324;2023-11-19T07:36:51;109.23;;;68.73;;
9739;SDS011;4909;42.680;26.324;2023-11-19T07:39:19;115.13;;;73.60;;
9739;SDS011;4909;42.680;26.324;2023-11-19T07:41:47;114.27;;;71.00;;
9739;SDS011;4909;42.680;26.324;2023-11-19T07:44:14;114.43;;;75.23;;
9739;SDS011;4909;42.680;26.324;2023-11-19T07:46:41;116.90;;;73.10;;
9739;SDS011;4909;42.680;26.324;2023-11-19T07:49:10;116.27;;;73.93;;
9739;SDS011;4909;42.680;26.324;2023-11-19T07:51:36;117.30;;;73.33;;
9739;SDS011;4909;42.680;26.324;2023-11-19T07:54:04;122.10;;;75.67;;
9739;SDS011;4909;42.680;26.324;2023-11-19T07:56:32;121.53;;;76.13;;
9739;SDS011;4909;42.680;26.324;2023-11-19T07:59:00;120.57;;;76.53;;
9739;SDS011;4909;42.680;26.324;2023-11-19T08:01:27;119.87;;;74.33;;
9739;SDS011;4909;42.680;26.324;2023-11-19T08:03:54;125.20;;;77.53;;
9739;SDS011;4909;42.680;26.324;2023-11-19T08:06:21;125.63;;;71.30;;
9739;SDS011;4909;42.680;26.324;2023-11-19T08:08:48;122.97;;;72.47;;
9739;SDS011;4909;42.680;26.324;2023-11-19T08:11:15;122.73;;;70.33;;
9739;SDS011;4909;42.680;26.324;2023-11-19T08:13:43;121.70;;;71.83;;
9739;SDS011;4909;42.680;26.324;2023-11-19T08:16:10;121.07;;;71.63;;
9739;SDS011;4909;42.680;26.324;2023-11-19T08:18:37;117.57;;;69.90;;
9739;SDS011;4909;42.680;26.324;2023-11-19T08:21:05;118.73;;;69.30;;
9739;SDS011;4909;42.680;26.324;2023-11-19T08:23:32;119.47;;;70.50;;
9739;SDS011;4909;42.680;26.324;2023-11-19T08:25:59;122.47;;;73.90;;
9739;SDS011;4909;42.680;26.324;2023-11-19T08:28:26;125.63;;;72.63;;
9739;SDS011;4909;42.680;26.324;2023-11-19T08:30:54;132.20;;;75.27;;
9739;SDS011;4909;42.680;26.324;2023-11-19T08:33:21;128.00;;;73.87;;
9739;SDS011;4909;42.680;26.324;2023-11-19T08:35:48;129.67;;;72.90;;
9739;SDS011;4909;42.680;26.324;2023-11-19T08:38:15;129.57;;;73.73;;
9739;SDS011;4909;42.680;26.324;2023-11-19T08:40:42;129.93;;;74.17;;
9739;SDS011;4909;42.680;26.324;2023-11-19T08:43:09;129.50;;;74.00;;
9739;SDS011;4909;42.680;26.324;2023-11-19T08:45:36;133.30;;;77.73;;
9739;SDS011;4909;42.680;26.324;2023-11-19T08:48:04;132.13;;;73.97;;
9739;SDS011;4909;42.680;26.324;2023-11-19T08:50:32;127.10;;;72.40;;
9739;SDS011;4909;42.680;26.324;2023-11-19T08:52:58;132.17;;;75.40;;
9739;SDS011;4909;42.680;26.324;2023-11-19T08:55:25;138.83;;;77.07;;
9739;SDS011;4909;42.680;26.324;2023-11-19T08:57:52;139.27;;;78.27;;
9739;SDS011;4909;42.680;26.324;2023-11-19T09:00:19;141.70;;;80.20;;
9739;SDS011;4909;42.680;26.324;2023-11-19T09:02:46;139.83;;;79.90;;
9739;SDS011;4909;42.680;26.324;2023-11-19T09:05:14;143.57;;;79.90;;
9739;SDS011;4909;42.680;26.324;2023-11-19T09:07:41;144.33;;;80.73;;
9739;SDS011;4909;42.680;26.324;2023-11-19T09:10:08;147.23;;;83.03;;
9739;SDS011;4909;42.680;26.324;2023-11-19T09:12:36;148.40;;;86.33;;
9739;SDS011;4909;42.680;26.324;2023-11-19T09:15:04;148.20;;;85.40;;
9739;SDS011;4909;42.680;26.324;2023-11-19T09:17:31;151.00;;;85.27;;
9739;SDS011;4909;42.680;26.324;2023-11-19T09:19:58;151.50;;;86.37;;
9739;SDS011;4909;42.680;26.324;2023-11-19T09:22:27;152.57;;;84.67;;
9739;SDS011;4909;42.680;26.324;2023-11-19T09:24:53;147.53;;;81.93;;
9739;SDS011;4909;42.680;26.324;2023-11-19T09:27:20;151.60;;;85.40;;
9739;SDS011;4909;42.680;26.324;2023-11-19T09:29:47;145.07;;;83.30;;
9739;SDS011;4909;42.680;26.324;2023-11-19T09:32:16;142.90;;;80.20;;
9739;SDS011;4909;42.680;26.324;2023-11-19T09:34:43;187.53;;;97.23;;
9739;SDS011;4909;42.680;26.324;2023-11-19T09:37:10;137.97;;;79.93;;
9739;SDS011;4909;42.680;26.324;2023-11-19T09:39:38;132.80;;;77.37;;
9739;SDS011;4909;42.680;26.324;2023-11-19T09:42:08;137.53;;;78.30;;
9739;SDS011;4909;42.680;26.324;2023-11-19T09:44:35;134.50;;;78.40;;
9739;SDS011;4909;42.680;26.324;2023-11-19T09:47:05;134.23;;;74.80;;
9739;SDS011;4909;42.680;26.324;2023-11-19T09:49:33;134.50;;;77.70;;
9739;SDS011;4909;42.680;26.324;2023-11-19T09:52:02;132.30;;;78.27;;
9739;SDS011;4909;42.680;26.324;2023-11-19T09:54:29;136.30;;;79.40;;
9739;SDS011;4909;42.680;26.324;2023-11-19T09:56:58;132.57;;;76.23;;
9739;SDS011;4909;42.680;26.324;2023-11-19T09:59:29;130.90;;;73.47;;
9739;SDS011;4909;42.680;26.324;2023-11-19T10:01:56;131.50;;;74.23;;
9739;SDS011;4909;42.680;26.324;2023-11-19T10:04:23;131.97;;;74.00;;
9739;SDS011;4909;42.680;26.324;2023-11-19T10:06:51;131.43;;;75.37;;
9739;SDS011;4909;42.680;26.324;2023-11-19T10:09:18;129.73;;;73.80;;
9739;SDS011;4909;42.680;26.324;2023-11-19T10:11:45;130.33;;;72.83;;
9739;SDS011;4909;42.680;26.324;2023-11-19T10:14:14;135.00;;;75.40;;
9739;SDS011;4909;42.680;26.324;2023-11-19T10:16:41;138.67;;;76.83;;
9739;SDS011;4909;42.680;26.324;2023-11-19T10:19:11;133.60;;;75.13;;
9739;SDS011;4909;42.680;26.324;2023-11-19T10:21:45;131.53;;;75.13;;
9739;SDS011;4909;42.680;26.324;2023-11-19T10:24:12;137.43;;;78.27;;
9739;SDS011;4909;42.680;26.324;2023-11-19T10:26:39;138.67;;;76.00;;
9739;SDS011;4909;42.680;26.324;2023-11-19T10:29:07;134.67;;;73.50;;
9739;SDS011;4909;42.680;26.324;2023-11-19T10:31:36;139.37;;;76.83;;
9739;SDS011;4909;42.680;26.324;2023-11-19T10:34:03;137.90;;;77.63;;
9739;SDS011;4909;42.680;26.324;2023-11-19T10:36:37;139.17;;;77.70;;
9739;SDS011;4909;42.680;26.324;2023-11-19T10:39:06;139.90;;;76.47;;
9739;SDS011;4909;42.680;26.324;2023-11-19T10:41:34;138.60;;;77.00;;
9739;SDS011;4909;42.680;26.324;2023-11-19T10:44:01;138.80;;;75.77;;
9739;SDS011;4909;42.680;26.324;2023-11-19T10:46:38;137.77;;;80.07;;
9739;SDS011;4909;42.680;26.324;2023-11-19T10:49:07;133.63;;;77.30;;
9739;SDS011;4909;42.680;26.324;2023-11-19T10:51:34;134.43;;;75.00;;
9739;SDS011;4909;42.680;26.324;2023-11-19T10:54:02;137.07;;;79.40;;
9739;SDS011;4909;42.680;26.324;2023-11-19T10:56:31;130.93;;;76.67;;
9739;SDS011;4909;42.680;26.324;2023-11-19T10:58:59;128.60;;;71.83;;
9739;SDS011;4909;42.680;26.324;2023-11-19T11:01:31;122.97;;;70.57;;
9739;SDS011;4909;42.680;26.324;2023-11-19T11:04:07;123.20;;;69.00;;
9739;SDS011;4909;42.680;26.324;2023-11-19T11:06:40;118.07;;;66.57;;
9739;SDS011;4909;42.680;26.324;2023-11-19T11:09:07;121.33;;;69.90;;
9739;SDS011;4909;42.680;26.324;2023-11-19T11:11:38;117.43;;;68.77;;
9739;SDS011;4909;42.680;26.324;2023-11-19T11:14:09;112.40;;;63.83;;
9739;SDS011;4909;42.680;26.324;2023-11-19T11:16:39;114.13;;;64.23;;
9739;SDS011;4909;42.680;26.324;2023-11-19T11:19:10;112.90;;;63.90;;
9739;SDS011;4909;42.680;26.324;2023-11-19T11:21:38;113.50;;;63.13;;
9739;SDS011;4909;42.680;26.324;2023-11-19T11:24:25;111.60;;;62.87;;
9739;SDS011;4909;42.680;26.324;2023-11-19T11:27:25;110.00;;;62.20;;
9739;SDS011;4909;42.680;26.324;2023-11-19T11:30:08;110.83;;;61.40;;
9739;SDS011;4909;42.680;26.324;2023-11-19T11:32:48;112.27;;;61.63;;
9739;SDS011;4909;42.680;26.324;2023-11-19T11:35:27;112.47;;;64.00;;
9739;SDS011;4909;42.680;26.324;2023-11-19T11:38:00;114.20;;;62.83;;
9739;SDS011;4909;42.680;26.324;2023-11-19T11:40:30;118.50;;;67.03;;
9739;SDS011;4909;42.680;26.324;2023-11-19T11:42:57;119.27;;;67.13;;
9739;SDS011;4909;42.680;26.324;2023-11-19T11:45:34;113.40;;;64.37;;
9739;SDS011;4909;42.680;26.324;2023-11-19T11:48:12;117.53;;;63.80;;
9739;SDS011;4909;42.680;26.324;2023-11-19T11:50:49;117.33;;;64.87;;
9739;SDS011;4909;42.680;26.324;2023-11-19T11:53:20;116.03;;;64.87;;
9739;SDS011;4909;42.680;26.324;2023-11-19T11:55:56;114.93;;;64.50;;
9739;SDS011;4909;42.680;26.324;2023-11-19T11:58:25;122.67;;;68.37;;
9739;SDS011;4909;42.680;26.324;2023-11-19T12:00:56;121.10;;;66.23;;
9739;SDS011;4909;42.680;26.324;2023-11-19T12:03:26;126.40;;;68.97;;
9739;SDS011;4909;42.680;26.324;2023-11-19T12:05:55;119.53;;;66.93;;
9739;SDS011;4909;42.680;26.324;2023-11-19T12:08:27;120.63;;;66.37;;
9739;SDS011;4909;42.680;26.324;2023-11-19T12:10:55;117.63;;;65.87;;
9739;SDS011;4909;42.680;26.324;2023-11-19T12:16:20;117.33;;;67.43;;
9739;SDS011;4909;42.680;26.324;2023-11-19T12:18:48;122.30;;;67.10;;
9739;SDS011;4909;42.680;26.324;2023-11-19T12:21:29;122.70;;;71.47;;
9739;SDS011;4909;42.680;26.324;2023-11-19T12:23:58;125.07;;;69.00;;
9739;SDS011;4909;42.680;26.324;2023-11-19T12:26:35;124.60;;;69.60;;
9739;SDS011;4909;42.680;26.324;2023-11-19T12:29:03;125.27;;;73.37;;
9739;SDS011;4909;42.680;26.324;2023-11-19T12:31:31;127.93;;;72.63;;
9739;SDS011;4909;42.680;26.324;2023-11-19T12:34:04;126.53;;;69.50;;
9739;SDS011;4909;42.680;26.324;2023-11-19T12:36:39;128.23;;;72.20;;
9739;SDS011;4909;42.680;26.324;2023-11-19T12:39:07;132.87;;;72.97;;
9739;SDS011;4909;42.680;26.324;2023-11-19T12:41:50;135.30;;;75.00;;
9739;SDS011;4909;42.680;26.324;2023-11-19T12:44:17;132.73;;;73.37;;
9739;SDS011;4909;42.680;26.324;2023-11-19T12:46:44;135.47;;;75.90;;
9739;SDS011;4909;42.680;26.324;2023-11-19T12:49:11;124.50;;;68.63;;
9739;SDS011;4909;42.680;26.324;2023-11-19T12:51:40;129.10;;;71.73;;
9739;SDS011;4909;42.680;26.324;2023-11-19T12:54:07;132.90;;;74.17;;
9739;SDS011;4909;42.680;26.324;2023-11-19T12:56:34;132.20;;;74.60;;
9739;SDS011;4909;42.680;26.324;2023-11-19T12:59:09;135.43;;;74.73;;
9739;SDS011;4909;42.680;26.324;2023-11-19T13:01:38;135.73;;;72.30;;
9739;SDS011;4909;42.680;26.324;2023-11-19T13:04:15;135.50;;;72.90;;
9739;SDS011;4909;42.680;26.324;2023-11-19T13:06:45;136.90;;;75.60;;
9739;SDS011;4909;42.680;26.324;2023-11-19T13:09:21;134.17;;;72.53;;
9739;SDS011;4909;42.680;26.324;2023-11-19T13:11:48;136.70;;;75.63;;
9739;SDS011;4909;42.680;26.324;2023-11-19T13:14:17;134.40;;;72.53;;
9739;SDS011;4909;42.680;26.324;2023-11-19T13:16:44;138.37;;;73.23;;
9739;SDS011;4909;42.680;26.324;2023-11-19T13:19:11;136.80;;;73.73;;
9739;SDS011;4909;42.680;26.324;2023-11-19T13:21:38;138.17;;;75.83;;
9739;SDS011;4909;42.680;26.324;2023-11-19T13:24:07;139.07;;;73.63;;
9739;SDS011;4909;42.680;26.324;2023-11-19T13:26:34;133.77;;;70.70;;
9739;SDS011;4909;42.680;26.324;2023-11-19T13:29:01;137.17;;;72.20;;
9739;SDS011;4909;42.680;26.324;2023-11-19T13:31:28;139.47;;;74.17;;
9739;SDS011;4909;42.680;26.324;2023-11-19T13:33:55;141.03;;;73.87;;
9739;SDS011;4909;42.680;26.324;2023-11-19T13:36:23;151.83;;;78.93;;
9739;SDS011;4909;42.680;26.324;2023-11-19T13:38:51;146.73;;;80.93;;
9739;SDS011;4909;42.680;26.324;2023-11-19T13:41:25;143.37;;;76.47;;
9739;SDS011;4909;42.680;26.324;2023-11-19T13:43:52;145.53;;;78.00;;
9739;SDS011;4909;42.680;26.324;2023-11-19T13:46:20;144.27;;;77.63;;
9739;SDS011;4909;42.680;26.324;2023-11-19T13:48:47;145.20;;;78.90;;
9739;SDS011;4909;42.680;26.324;2023-11-19T13:51:15;142.73;;;78.23;;
9739;SDS011;4909;42.680;26.324;2023-11-19T13:53:42;141.13;;;77.07;;
9739;SDS011;4909;42.680;26.324;2023-11-19T13:56:09;144.57;;;80.60;;
9739;SDS011;4909;42.680;26.324;2023-11-19T13:58:37;144.70;;;79.17;;
9739;SDS011;4909;42.680;26.324;2023-11-19T14:01:05;145.47;;;79.23;;
9739;SDS011;4909;42.680;26.324;2023-11-19T14:03:32;147.77;;;82.63;;
9739;SDS011;4909;42.680;26.324;2023-11-19T14:05:59;152.03;;;82.90;;
9739;SDS011;4909;42.680;26.324;2023-11-19T14:08:26;150.87;;;81.73;;
9739;SDS011;4909;42.680;26.324;2023-11-19T14:10:53;152.37;;;82.77;;
9739;SDS011;4909;42.680;26.324;2023-11-19T14:13:21;151.77;;;84.50;;
9739;SDS011;4909;42.680;26.324;2023-11-19T14:15:50;152.53;;;83.33;;
9739;SDS011;4909;42.680;26.324;2023-11-19T14:18:17;149.90;;;83.60;;
9739;SDS011;4909;42.680;26.324;2023-11-19T14:20:44;151.43;;;84.97;;
9739;SDS011;4909;42.680;26.324;2023-11-19T14:23:11;150.80;;;81.20;;
9739;SDS011;4909;42.680;26.324;2023-11-19T14:25:38;149.90;;;80.77;;
9739;SDS011;4909;42.680;26.324;2023-11-19T14:28:05;147.13;;;81.23;;
9739;SDS011;4909;42.680;26.324;2023-11-19T14:30:32;145.33;;;80.20;;
9739;SDS011;4909;42.680;26.324;2023-11-19T14:33:01;144.43;;;81.23;;
9739;SDS011;4909;42.680;26.324;2023-11-19T14:35:30;144.07;;;82.87;;
9739;SDS011;4909;42.680;26.324;2023-11-19T14:37:57;145.57;;;79.27;;